createdAt,value
2019-04-11T00:02:16.415Z,91.00
2019-04-11T00:04:46.315Z,91.10
2019-04-11T00:07:16.206Z,91.10
2019-04-11T00:09:47.955Z,91.20
2019-04-11T00:12:18.712Z,91.00
2019-04-11T00:14:48.407Z,91.40
2019-04-11T00:17:17.531Z,91.60
2019-04-11T00:19:47.498Z,91.90
2019-04-11T00:22:17.382Z,92.00
2019-04-11T00:24:47.197Z,92.20
2019-04-11T00:27:17.111Z,92.30
2019-04-11T00:29:49.680Z,92.20
2019-04-11T00:32:19.172Z,92.60
2019-04-11T00:34:48.191Z,92.70
2019-04-11T00:37:17.162Z,93.30
2019-04-11T00:39:46.382Z,93.10
2019-04-11T00:42:16.535Z,93.70
2019-04-11T00:44:47.956Z,93.50
2019-04-11T00:47:17.166Z,93.50
2019-04-11T00:49:46.505Z,93.60
2019-04-11T00:52:16.253Z,93.80
2019-04-11T00:54:45.384Z,93.60
2019-04-11T00:57:14.887Z,93.70
2019-04-11T00:59:44.677Z,93.90
2019-04-11T01:02:15.518Z,94.00
2019-04-11T01:04:45.347Z,94.00
2019-04-11T01:07:14.549Z,94.20
2019-04-11T01:09:44.308Z,93.90
2019-04-11T01:12:13.726Z,94.10
2019-04-11T01:14:43.283Z,94.10
2019-04-11T01:17:14.847Z,94.10
2019-04-11T01:19:44.391Z,94.00
2019-04-11T01:22:14.023Z,94.20
2019-04-11T01:24:43.984Z,94.10
2019-04-11T01:27:13.900Z,93.90
2019-04-11T01:29:43.927Z,94.00
2019-04-11T01:32:13.911Z,93.90
2019-04-11T01:34:44.526Z,93.90
2019-04-11T01:37:13.966Z,94.00
2019-04-11T01:39:53.722Z,94.10
2019-04-11T01:42:25.039Z,93.40
2019-04-11T01:44:54.875Z,93.40
2019-04-11T01:47:53.933Z,93.50
2019-04-11T01:50:25.162Z,93.60
2019-04-11T01:52:55.006Z,93.80
2019-04-11T01:55:24.164Z,94.00
2019-04-11T01:57:54.086Z,94.10
2019-04-11T02:00:30.855Z,94.10
2019-04-11T02:03:01.454Z,94.20
2019-04-11T02:05:34.984Z,94.30
2019-04-11T02:08:04.259Z,94.30
2019-04-11T02:10:34.873Z,94.60
2019-04-11T02:13:05.846Z,94.80
2019-04-11T02:15:38.789Z,94.80
2019-04-11T02:18:07.665Z,95.10
2019-04-11T02:20:36.967Z,95.20
2019-04-11T02:23:10.910Z,95.50
2019-04-11T02:25:42.779Z,95.60
2019-04-11T02:28:13.203Z,95.80
2019-04-11T02:30:45.936Z,95.90
2019-04-11T02:33:16.360Z,95.90
2019-04-11T02:35:47.105Z,95.90
2019-04-11T02:38:16.816Z,95.70
2019-04-11T02:40:47.962Z,95.80
2019-04-11T02:43:18.371Z,95.90
2019-04-11T02:45:58.120Z,95.90
2019-04-11T02:48:20.683Z,96.10
2019-04-11T02:50:50.759Z,96.20
2019-04-11T02:53:21.305Z,96.40
2019-04-11T02:55:52.160Z,96.80
2019-04-11T02:58:23.069Z,97.20
2019-04-11T03:00:57.566Z,97.70
2019-04-11T03:03:27.402Z,98.10
2019-04-11T03:05:58.144Z,98.50
2019-04-11T03:08:29.824Z,99.10
2019-04-11T03:10:59.527Z,99.20
2019-04-11T03:13:29.579Z,99.50
2019-04-11T03:16:11.405Z,99.60
2019-04-11T03:18:49.443Z,99.90
2019-04-11T03:21:06.107Z,99.90
2019-04-11T03:23:37.269Z,99.90
2019-04-11T03:26:07.524Z,99.90
2019-04-11T03:28:40.235Z,99.90
2019-04-11T03:31:41.737Z,99.90
2019-04-11T03:34:44.211Z,99.90
2019-04-11T03:39:07.544Z,99.90
2019-04-11T03:41:26.983Z,99.90
2019-04-11T03:43:58.166Z,99.90
2019-04-11T03:46:32.636Z,99.90
2019-04-11T03:48:59.893Z,99.90
2019-04-11T03:51:22.697Z,99.90
2019-04-11T03:53:56.780Z,99.90
2019-04-11T03:56:24.640Z,99.90
2019-04-11T03:58:57.644Z,99.90
2019-04-11T04:01:27.118Z,99.90
2019-04-11T04:04:00.607Z,99.90
2019-04-11T04:06:31.041Z,99.90
2019-04-11T04:09:02.261Z,99.90
2019-04-11T04:11:32.619Z,99.90
2019-04-11T04:14:04.245Z,99.90
2019-04-11T04:16:56.497Z,99.90
2019-04-11T04:19:27.087Z,99.90
2019-04-11T04:22:13.447Z,99.90
2019-04-11T04:24:42.735Z,99.90
2019-04-11T04:27:13.196Z,99.90
2019-04-11T04:29:46.666Z,99.90
2019-04-11T04:32:16.400Z,99.90
2019-04-11T04:34:50.734Z,99.90
2019-04-11T04:37:21.397Z,99.90
2019-04-11T04:40:10.720Z,99.90
2019-04-11T04:42:27.413Z,99.90
2019-04-11T04:44:58.281Z,99.90
2019-04-11T04:47:37.147Z,99.90
2019-04-11T04:49:59.269Z,99.90
2019-04-11T04:52:29.665Z,99.90
2019-04-11T04:55:01.534Z,99.90
2019-04-11T04:57:31.728Z,99.90
2019-04-11T05:00:02.666Z,99.90
2019-04-11T05:02:32.757Z,99.90
2019-04-11T05:05:04.217Z,99.90
2019-04-11T05:07:39.984Z,99.90
2019-04-11T05:10:08.908Z,99.90
2019-04-11T05:12:38.827Z,99.90
2019-04-11T05:15:09.924Z,99.90
2019-04-11T05:17:41.791Z,99.90
2019-04-11T05:20:10.197Z,99.90
2019-04-11T05:22:39.400Z,99.90
2019-04-11T05:25:08.488Z,99.90
2019-04-11T05:27:37.847Z,99.90
2019-04-11T05:30:08.280Z,99.90
2019-04-11T05:32:39.541Z,99.90
2019-04-11T05:35:09.352Z,99.90
2019-04-11T05:37:40.481Z,99.90
2019-04-11T05:40:09.650Z,99.90
2019-04-11T05:42:39.636Z,99.90
2019-04-11T05:45:17.333Z,99.90
2019-04-11T05:47:43.490Z,99.90
2019-04-11T05:50:18.362Z,99.90
2019-04-11T05:52:50.331Z,99.90
2019-04-11T05:55:19.590Z,99.90
2019-04-11T05:57:48.548Z,99.90
2019-04-11T06:00:19.432Z,99.90
2019-04-11T06:02:53.301Z,99.90
2019-04-11T06:05:27.779Z,99.90
2019-04-11T06:07:57.814Z,99.90
2019-04-11T06:10:37.052Z,99.90
2019-04-11T06:13:12.648Z,99.90
2019-04-11T06:15:49.286Z,99.90
2019-04-11T06:18:41.910Z,99.90
2019-04-11T06:21:16.490Z,99.90
2019-04-11T06:23:47.756Z,99.90
2019-04-11T06:26:24.882Z,99.90
2019-04-11T06:28:56.903Z,99.90
2019-04-11T06:31:45.489Z,99.90
2019-04-11T06:34:15.560Z,99.90
2019-04-11T06:36:58.105Z,99.90
2019-04-11T06:39:37.871Z,99.90
2019-04-11T06:42:19.180Z,99.90
2019-04-11T06:44:50.136Z,99.90
2019-04-11T06:47:36.765Z,99.90
2019-04-11T06:50:17.383Z,99.90
2019-04-11T06:52:48.715Z,99.90
2019-04-11T06:55:20.365Z,99.90
2019-04-11T06:58:03.203Z,99.90
2019-04-11T07:00:33.604Z,99.90
2019-04-11T07:03:05.605Z,99.90
2019-04-11T07:05:40.637Z,99.90
2019-04-11T07:08:10.607Z,99.90
2019-04-11T07:10:48.779Z,99.90
2019-04-11T07:13:22.718Z,99.90
2019-04-11T07:15:52.878Z,99.90
2019-04-11T07:18:37.739Z,99.90
2019-04-11T07:21:08.895Z,99.90
2019-04-11T07:23:55.776Z,99.90
2019-04-11T07:26:27.371Z,99.90
2019-04-11T07:29:15.254Z,99.90
2019-04-11T07:31:53.039Z,99.90
2019-04-11T07:34:33.138Z,99.90
2019-04-11T07:37:19.118Z,99.90
2019-04-11T07:40:00.649Z,99.90
2019-04-11T07:42:52.045Z,99.90
2019-04-11T07:45:34.402Z,99.90
2019-04-11T07:48:12.868Z,99.90
2019-04-11T07:50:42.257Z,99.90
2019-04-11T07:53:13.380Z,99.90
2019-04-11T07:55:44.416Z,99.90
2019-04-11T07:58:21.510Z,99.90
2019-04-11T08:01:06.254Z,99.90
2019-04-11T08:03:43.268Z,99.90
2019-04-11T08:06:31.065Z,99.60
2019-04-11T08:09:11.122Z,99.40
2019-04-11T08:11:42.177Z,99.10
2019-04-11T08:14:21.625Z,99.10
2019-04-11T08:17:01.668Z,99.40
